createdAt,value
2019-04-05T00:00:31.365Z,24.00
2019-04-05T00:03:00.887Z,23.90
2019-04-05T00:05:30.189Z,23.90
2019-04-05T00:07:59.487Z,23.90
2019-04-05T00:10:29.113Z,23.90
2019-04-05T00:12:58.891Z,23.90
2019-04-05T00:15:30.648Z,23.90
2019-04-05T00:17:59.913Z,23.90
2019-04-05T00:20:30.268Z,23.90
2019-04-05T00:23:00.044Z,23.90
2019-04-05T00:25:29.725Z,23.90
2019-04-05T00:27:59.908Z,23.90
2019-04-05T00:30:29.228Z,23.90
2019-04-05T00:32:58.517Z,23.90
2019-04-05T00:35:27.931Z,23.80
2019-04-05T00:37:57.233Z,23.80
2019-04-05T00:40:26.529Z,23.80
2019-04-05T00:42:56.454Z,23.80
2019-04-05T00:45:28.442Z,23.80
2019-04-05T00:47:56.674Z,23.80
2019-04-05T00:50:25.949Z,23.80
2019-04-05T00:52:55.267Z,23.80
2019-04-05T00:55:24.610Z,23.80
2019-04-05T00:57:54.339Z,23.80
2019-04-05T01:00:23.979Z,23.80
2019-04-05T01:02:53.594Z,23.80
2019-04-05T01:05:22.980Z,23.80
2019-04-05T01:07:52.689Z,23.80
2019-04-05T01:10:22.116Z,23.80
2019-04-05T01:12:52.133Z,23.80
2019-04-05T01:15:21.904Z,23.80
2019-04-05T01:17:51.982Z,23.70
2019-04-05T01:20:21.267Z,23.80
2019-04-05T01:22:50.840Z,23.70
2019-04-05T01:25:21.211Z,23.70
2019-04-05T01:27:51.427Z,23.70
2019-04-05T01:30:20.814Z,23.70
2019-04-05T01:32:50.515Z,23.70
2019-04-05T01:35:19.816Z,23.60
2019-04-05T01:37:49.556Z,23.70
2019-04-05T01:40:19.249Z,23.60
2019-04-05T01:42:49.327Z,23.70
2019-04-05T01:45:18.748Z,23.60
2019-04-05T01:47:48.827Z,23.60
2019-04-05T01:50:18.729Z,23.60
2019-04-05T01:52:48.605Z,23.60
2019-04-05T01:55:17.931Z,23.60
2019-04-05T01:57:47.390Z,23.60
2019-04-05T02:00:16.688Z,23.60
2019-04-05T02:02:46.391Z,23.60
2019-04-05T02:05:16.066Z,23.50
2019-04-05T02:07:45.943Z,23.50
2019-04-05T02:10:15.479Z,23.50
2019-04-05T02:12:44.931Z,23.50
2019-04-05T02:15:15.504Z,23.50
2019-04-05T02:17:44.810Z,23.50
2019-04-05T02:20:14.400Z,23.50
2019-04-05T02:22:44.028Z,23.50
2019-04-05T02:25:13.599Z,23.50
2019-04-05T02:27:43.085Z,23.40
2019-04-05T02:30:12.760Z,23.40
2019-04-05T02:32:42.395Z,23.40
2019-04-05T02:35:12.077Z,23.40
2019-04-05T02:37:41.699Z,23.40
2019-04-05T02:40:12.433Z,23.40
2019-04-05T02:42:42.966Z,23.40
2019-04-05T02:45:12.657Z,23.40
2019-04-05T02:47:43.189Z,23.30
2019-04-05T02:50:15.929Z,23.30
2019-04-05T02:52:45.640Z,23.30
2019-04-05T02:55:15.059Z,23.30
2019-04-05T02:57:45.359Z,23.30
2019-04-05T03:00:14.907Z,23.30
2019-04-05T03:02:44.779Z,23.30
2019-04-05T03:05:14.434Z,23.20
2019-04-05T03:07:44.069Z,23.20
2019-04-05T03:10:14.637Z,23.20
2019-04-05T03:12:43.931Z,23.20
2019-04-05T03:15:13.341Z,23.20
2019-04-05T03:17:43.013Z,23.10
2019-04-05T03:20:12.582Z,23.10
2019-04-05T03:22:42.106Z,23.10
2019-04-05T03:25:11.517Z,23.10
2019-04-05T03:27:41.195Z,23.10
2019-04-05T03:30:10.646Z,23.10
2019-04-05T03:32:40.447Z,23.10
2019-04-05T03:35:10.021Z,23.10
2019-04-05T03:37:39.306Z,23.10
2019-04-05T03:40:09.170Z,23.00
2019-04-05T03:42:39.273Z,23.10
2019-04-05T03:45:09.000Z,23.00
2019-04-05T03:47:38.598Z,23.00
2019-04-05T03:50:07.977Z,23.00
2019-04-05T03:52:37.354Z,23.10
2019-04-05T03:55:07.335Z,23.20
2019-04-05T03:57:36.861Z,23.20
2019-04-05T04:00:07.138Z,23.20
2019-04-05T04:02:36.777Z,23.20
2019-04-05T04:05:06.459Z,23.20
2019-04-05T04:07:36.306Z,23.30
2019-04-05T04:10:06.650Z,23.20
2019-04-05T04:12:36.673Z,23.20
2019-04-05T04:15:16.484Z,23.30
2019-04-05T04:17:46.034Z,23.20
2019-04-05T04:20:33.754Z,23.20
2019-04-05T04:23:03.300Z,23.10
2019-04-05T04:25:32.594Z,23.10
2019-04-05T04:28:02.213Z,23.10
2019-04-05T04:30:31.918Z,23.10
2019-04-05T04:33:02.127Z,23.10
2019-04-05T04:35:32.081Z,23.10
2019-04-05T04:38:02.165Z,23.10
2019-04-05T04:40:31.843Z,23.10
2019-04-05T04:43:01.907Z,23.10
2019-04-05T04:45:31.317Z,23.10
2019-04-05T04:48:01.157Z,23.10
2019-04-05T04:50:30.664Z,23.10
2019-04-05T04:53:00.562Z,23.10
2019-04-05T04:55:29.809Z,23.00
2019-04-05T04:57:59.595Z,23.00
2019-04-05T05:00:29.116Z,23.00
2019-04-05T05:02:59.017Z,23.00
2019-04-05T05:05:28.408Z,23.00
2019-04-05T05:07:57.769Z,23.00
2019-04-05T05:10:27.638Z,23.00
2019-04-05T05:12:56.918Z,23.00
2019-04-05T05:15:27.424Z,23.00
2019-04-05T05:17:58.725Z,23.00
2019-04-05T05:20:28.437Z,23.00
2019-04-05T05:22:58.057Z,22.90
2019-04-05T05:25:27.566Z,22.80
2019-04-05T05:27:57.335Z,22.80
2019-04-05T05:30:27.324Z,22.70
2019-04-05T05:32:56.595Z,22.60
2019-04-05T05:35:26.104Z,22.60
2019-04-05T05:37:55.700Z,22.50
2019-04-05T05:40:34.849Z,22.50
2019-04-05T05:42:56.081Z,22.50
2019-04-05T05:45:25.727Z,22.50
2019-04-05T05:47:55.102Z,22.50
2019-04-05T05:50:24.975Z,22.50
2019-04-05T05:52:54.645Z,22.50
2019-04-05T05:55:24.003Z,22.40
2019-04-05T05:57:54.866Z,22.50
2019-04-05T06:00:24.912Z,22.40
2019-04-05T06:02:54.136Z,22.40
2019-04-05T06:05:23.793Z,22.40
2019-04-05T06:07:53.427Z,22.50
2019-04-05T06:10:22.789Z,22.50
2019-04-05T06:12:52.217Z,22.50
2019-04-05T06:15:21.485Z,22.40
2019-04-05T06:18:03.877Z,22.40
2019-04-05T06:20:21.916Z,22.40
2019-04-05T06:22:51.525Z,22.40
2019-04-05T06:25:21.267Z,22.30
2019-04-05T06:27:50.818Z,22.30
2019-04-05T06:30:20.626Z,22.30
2019-04-05T06:32:50.275Z,22.20
2019-04-05T06:35:19.856Z,22.30
2019-04-05T06:37:49.659Z,22.30
2019-04-05T06:40:18.970Z,22.30
2019-04-05T06:42:48.457Z,22.30
2019-04-05T06:45:17.904Z,22.30
2019-04-05T06:47:47.656Z,22.20
2019-04-05T06:50:17.152Z,22.20
2019-04-05T06:52:46.466Z,22.20
2019-04-05T06:55:16.354Z,22.10
2019-04-05T06:57:45.655Z,22.10
2019-04-05T07:00:15.125Z,22.10
2019-04-05T07:02:44.567Z,22.10
2019-04-05T07:05:13.890Z,22.10
2019-04-05T07:07:43.349Z,22.10
2019-04-05T07:10:12.771Z,22.10
2019-04-05T07:12:42.544Z,22.10
2019-04-05T07:15:12.232Z,22.10
2019-04-05T07:17:41.829Z,22.10
2019-04-05T07:20:11.200Z,22.00
2019-04-05T07:22:40.700Z,22.00
2019-04-05T07:25:10.346Z,22.00
2019-04-05T07:27:39.955Z,21.90
2019-04-05T07:30:09.770Z,21.90
2019-04-05T07:32:39.082Z,21.90
2019-04-05T07:35:08.568Z,21.80
2019-04-05T07:37:37.889Z,21.80
2019-04-05T07:40:07.374Z,21.80
2019-04-05T07:42:37.126Z,21.90
2019-04-05T07:45:07.371Z,21.80
2019-04-05T07:47:36.893Z,21.80
2019-04-05T07:50:07.483Z,21.80
2019-04-05T07:52:36.783Z,21.80
2019-04-05T07:55:07.343Z,21.80
2019-04-05T07:57:36.624Z,21.70
2019-04-05T08:00:10.409Z,21.70
2019-04-05T08:02:39.700Z,21.60
2019-04-05T08:05:09.385Z,21.60
2019-04-05T08:07:39.920Z,21.60
2019-04-05T08:10:09.229Z,21.60
2019-04-05T08:12:38.930Z,21.60
2019-04-05T08:15:09.238Z,21.60
2019-04-05T08:17:38.556Z,21.60
2019-04-05T08:20:08.117Z,21.60
2019-04-05T08:22:37.403Z,21.60
2019-04-05T08:25:07.384Z,21.50
2019-04-05T08:27:36.851Z,21.50
2019-04-05T08:30:07.623Z,21.50
2019-04-05T08:32:36.937Z,21.40
2019-04-05T08:35:07.382Z,21.40
2019-04-05T08:37:36.710Z,21.40
2019-04-05T08:40:09.087Z,21.40
2019-04-05T08:42:38.417Z,21.40
2019-04-05T08:45:08.331Z,21.40
2019-04-05T08:47:38.010Z,21.40
2019-04-05T08:50:07.603Z,21.40
2019-04-05T08:52:37.193Z,21.30
2019-04-05T08:55:07.542Z,21.40
2019-04-05T08:57:37.022Z,21.30
2019-04-05T09:00:07.761Z,21.30
2019-04-05T09:02:37.319Z,21.30
2019-04-05T09:05:08.510Z,21.20
2019-04-05T09:07:37.791Z,21.20
2019-04-05T09:10:08.808Z,21.20
2019-04-05T09:12:38.285Z,21.20
2019-04-05T09:15:08.141Z,21.20
2019-04-05T09:17:37.606Z,21.20
2019-04-05T09:20:07.100Z,21.20
2019-04-05T09:22:36.401Z,21.20
2019-04-05T09:25:07.322Z,21.10
2019-04-05T09:27:36.585Z,21.10
2019-04-05T09:30:07.487Z,21.10
2019-04-05T09:32:37.208Z,21.10
2019-04-05T09:35:07.088Z,21.00
2019-04-05T09:37:36.533Z,21.00
2019-04-05T09:40:07.255Z,21.00
2019-04-05T09:42:36.524Z,21.00
2019-04-05T09:45:07.470Z,21.00
2019-04-05T09:47:36.761Z,21.00
2019-04-05T09:50:07.399Z,21.10
2019-04-05T09:52:39.877Z,21.10
2019-04-05T09:55:08.327Z,21.10
2019-04-05T09:57:37.789Z,21.10
2019-04-05T10:00:09.767Z,21.00
2019-04-05T10:02:39.425Z,21.00
2019-04-05T10:05:09.752Z,21.00
2019-04-05T10:07:48.705Z,21.00
2019-04-05T10:10:10.332Z,20.90
2019-04-05T10:12:39.606Z,21.00
2019-04-05T10:15:09.523Z,20.90
2019-04-05T10:17:38.927Z,20.90
2019-04-05T10:20:08.950Z,20.90
2019-04-05T10:22:38.399Z,20.90
2019-04-05T10:25:08.243Z,20.80
2019-04-05T10:27:37.749Z,20.80
2019-04-05T10:30:11.246Z,20.80
2019-04-05T10:32:40.879Z,20.80
2019-04-05T10:35:10.340Z,20.80
2019-04-05T10:37:39.927Z,20.80
2019-04-05T10:40:09.406Z,20.70
2019-04-05T10:42:39.057Z,20.80
2019-04-05T10:45:12.450Z,20.80
2019-04-05T10:47:42.282Z,20.80
2019-04-05T10:50:13.228Z,20.80
2019-04-05T10:52:42.494Z,20.80
2019-04-05T10:55:12.353Z,20.80
2019-04-05T10:57:42.349Z,20.80
2019-04-05T11:00:12.655Z,20.70
2019-04-05T11:02:41.961Z,20.80
2019-04-05T11:05:11.328Z,20.70
2019-04-05T11:07:40.641Z,20.70
2019-04-05T11:10:10.109Z,20.70
2019-04-05T11:12:39.933Z,20.70
2019-04-05T11:15:10.221Z,20.70
2019-04-05T11:17:41.446Z,20.70
2019-04-05T11:20:21.351Z,20.70
2019-04-05T11:22:46.721Z,20.70
2019-04-05T11:25:15.646Z,20.70
2019-04-05T11:27:45.165Z,20.70
2019-04-05T11:30:15.012Z,20.70
2019-04-05T11:32:44.553Z,20.70
2019-04-05T11:35:15.034Z,20.70
2019-04-05T11:37:44.642Z,20.70
2019-04-05T11:40:14.404Z,20.70
2019-04-05T11:42:43.975Z,20.60
2019-04-05T11:45:13.373Z,20.60
2019-04-05T11:47:43.503Z,20.70
2019-04-05T11:50:13.171Z,20.60
2019-04-05T11:52:42.487Z,20.60
2019-04-05T11:55:12.215Z,20.60
2019-04-05T11:57:42.050Z,20.60
2019-04-05T12:00:14.259Z,20.50
2019-04-05T12:02:48.341Z,20.50
2019-04-05T12:05:20.352Z,20.50
2019-04-05T12:07:49.360Z,20.50
2019-04-05T12:10:19.472Z,20.50
2019-04-05T12:12:48.978Z,20.50
2019-04-05T12:15:18.523Z,20.50
2019-04-05T12:17:47.773Z,20.50
2019-04-05T12:20:17.173Z,20.50
2019-04-05T12:22:47.041Z,20.50
2019-04-05T12:25:16.328Z,20.50
2019-04-05T12:27:45.875Z,20.40
2019-04-05T12:30:19.451Z,20.40
2019-04-05T12:32:49.442Z,20.40
2019-04-05T12:35:21.400Z,20.40
2019-04-05T12:37:50.867Z,20.30
2019-04-05T12:40:20.718Z,20.40
2019-04-05T12:42:52.777Z,20.30
2019-04-05T12:45:21.025Z,20.40
2019-04-05T12:47:50.819Z,20.40
2019-04-05T12:50:20.364Z,20.40
2019-04-05T12:52:49.961Z,20.40
2019-04-05T12:55:23.859Z,20.40
2019-04-05T12:57:50.392Z,20.40
2019-04-05T13:00:21.146Z,20.40
2019-04-05T13:02:50.982Z,20.30
2019-04-05T13:05:21.490Z,20.30
2019-04-05T13:07:52.604Z,20.30
2019-04-05T13:10:25.126Z,20.30
2019-04-05T13:12:56.766Z,20.30
2019-04-05T13:15:24.234Z,20.30
2019-04-05T13:17:53.759Z,20.30
2019-04-05T13:20:23.226Z,20.30
2019-04-05T13:22:52.457Z,20.30
2019-04-05T13:25:23.039Z,20.30
2019-04-05T13:27:52.940Z,20.20
2019-04-05T13:30:22.232Z,20.20
2019-04-05T13:32:53.419Z,20.20
2019-04-05T13:35:22.588Z,20.20
2019-04-05T13:37:51.853Z,20.10
2019-04-05T13:40:21.424Z,20.10
2019-04-05T13:42:50.706Z,20.20
2019-04-05T13:45:20.426Z,20.20
2019-04-05T13:47:50.053Z,20.20
2019-04-05T13:50:19.586Z,20.20
2019-04-05T13:52:49.546Z,20.10
2019-04-05T13:55:18.873Z,20.10
2019-04-05T13:57:48.410Z,20.10
2019-04-05T14:00:18.573Z,20.10
2019-04-05T14:02:50.109Z,20.10
2019-04-05T14:05:19.030Z,20.10
2019-04-05T14:07:48.755Z,20.10
2019-04-05T14:10:18.229Z,20.10
2019-04-05T14:12:47.907Z,20.20
2019-04-05T14:15:17.370Z,20.10
2019-04-05T14:17:49.092Z,20.20
2019-04-05T14:20:19.498Z,20.20
2019-04-05T14:22:50.820Z,20.20
2019-04-05T14:25:19.351Z,20.20
2019-04-05T14:27:48.914Z,20.10
2019-04-05T14:30:18.400Z,20.10
2019-04-05T14:32:51.088Z,20.10
2019-04-05T14:35:20.142Z,20.10
2019-04-05T14:37:49.964Z,20.10
2019-04-05T14:40:20.107Z,20.10
2019-04-05T14:42:49.391Z,20.10
2019-04-05T14:45:18.702Z,20.20
2019-04-05T14:47:49.189Z,20.20
2019-04-05T14:50:18.921Z,20.20
2019-04-05T14:52:49.546Z,20.20
2019-04-05T14:55:20.367Z,20.20
2019-04-05T14:57:49.658Z,20.20
2019-04-05T15:00:19.235Z,20.20
2019-04-05T15:02:48.531Z,20.20
2019-04-05T15:05:17.811Z,20.20
2019-04-05T15:07:50.873Z,20.20
2019-04-05T15:10:18.192Z,20.20
2019-04-05T15:12:47.781Z,20.20
2019-04-05T15:15:17.033Z,20.30
2019-04-05T15:17:48.199Z,20.20
2019-04-05T15:20:17.193Z,20.30
2019-04-05T15:22:46.482Z,20.40
2019-04-05T15:25:17.854Z,20.40
2019-04-05T15:27:46.614Z,20.40
2019-04-05T15:30:15.883Z,20.40
2019-04-05T15:32:45.346Z,20.40
2019-04-05T15:35:14.951Z,20.30
2019-04-05T15:37:44.332Z,20.30
2019-04-05T15:40:16.453Z,20.40
2019-04-05T15:42:46.688Z,20.40
2019-04-05T15:45:16.632Z,20.40
2019-04-05T15:47:45.974Z,20.40
2019-04-05T15:50:15.365Z,20.50
2019-04-05T15:52:44.646Z,20.50
2019-04-05T15:55:14.794Z,20.50
2019-04-05T15:57:44.178Z,20.50
2019-04-05T16:00:14.936Z,20.50
2019-04-05T16:02:44.212Z,20.50
2019-04-05T16:05:14.121Z,20.50
2019-04-05T16:07:43.503Z,20.60
2019-04-05T16:10:13.002Z,20.60
2019-04-05T16:12:42.353Z,20.60
2019-04-05T16:15:11.729Z,20.60
2019-04-05T16:17:40.986Z,20.60
2019-04-05T16:20:10.999Z,20.70
2019-04-05T16:22:40.284Z,20.70
2019-04-05T16:25:09.684Z,20.70
2019-04-05T16:27:39.064Z,20.70
2019-04-05T16:30:08.456Z,20.70
2019-04-05T16:32:37.741Z,20.70
2019-04-05T16:35:07.748Z,20.70
2019-04-05T16:37:37.031Z,20.70
2019-04-05T16:40:07.181Z,20.70
2019-04-05T16:42:36.512Z,20.70
2019-04-05T16:45:07.173Z,20.70
2019-04-05T16:47:36.464Z,20.80
2019-04-05T16:50:09.176Z,20.70
2019-04-05T16:52:45.145Z,20.80
2019-04-05T16:55:11.122Z,20.90
2019-04-05T16:57:40.529Z,21.00
2019-04-05T17:00:12.036Z,21.00
2019-04-05T17:02:41.456Z,21.00
2019-04-05T17:05:11.400Z,21.10
2019-04-05T17:07:40.685Z,21.10
2019-04-05T17:10:10.175Z,21.10
2019-04-05T17:12:39.649Z,21.10
2019-04-05T17:15:09.162Z,21.20
2019-04-05T17:17:38.482Z,21.20
2019-04-05T17:20:07.935Z,21.30
2019-04-05T17:22:37.226Z,21.30
2019-04-05T17:25:07.191Z,21.30
2019-04-05T17:27:36.495Z,21.40
2019-04-05T17:30:06.923Z,21.40
2019-04-05T17:32:36.572Z,21.40
2019-04-05T17:35:06.976Z,21.40
2019-04-05T17:37:36.367Z,21.30
2019-04-05T17:40:06.939Z,21.40
2019-04-05T17:42:36.230Z,21.40
2019-04-05T17:45:07.029Z,21.50
2019-04-05T17:47:36.362Z,21.50
2019-04-05T17:50:10.562Z,21.50
2019-04-05T17:52:39.973Z,21.50
2019-04-05T17:55:09.265Z,21.60
2019-04-05T17:57:38.563Z,21.60
2019-04-05T18:00:12.807Z,21.60
2019-04-05T18:02:43.172Z,21.60
2019-04-05T18:05:12.861Z,21.70
2019-04-05T18:07:42.169Z,21.70
2019-04-05T18:10:13.866Z,21.80
2019-04-05T18:12:42.447Z,21.80
2019-04-05T18:15:11.997Z,21.90
2019-04-05T18:17:41.354Z,22.00
2019-04-05T18:20:10.927Z,22.00
2019-04-05T18:22:40.243Z,22.10
2019-04-05T18:25:09.588Z,22.10
2019-04-05T18:27:38.923Z,22.10
2019-04-05T18:30:08.420Z,22.10
2019-04-05T18:32:37.721Z,22.10
2019-04-05T18:35:07.209Z,22.20
2019-04-05T18:37:36.612Z,22.20
2019-04-05T18:40:07.167Z,22.30
2019-04-05T18:42:36.560Z,22.30
2019-04-05T18:45:07.158Z,22.30
2019-04-05T18:47:36.550Z,22.30
2019-04-05T18:50:06.918Z,22.30
2019-04-05T18:52:36.261Z,22.30
2019-04-05T18:55:06.804Z,22.30
2019-04-05T18:57:36.099Z,22.30
2019-04-05T19:00:06.599Z,22.30
2019-04-05T19:02:35.890Z,22.40
2019-04-05T19:05:09.422Z,22.40
2019-04-05T19:07:38.689Z,22.50
2019-04-05T19:10:08.374Z,22.50
2019-04-05T19:12:37.731Z,22.40
2019-04-05T19:15:07.753Z,22.30
2019-04-05T19:17:37.255Z,22.10
2019-04-05T19:20:07.514Z,22.10
2019-04-05T19:22:36.894Z,22.10
2019-04-05T19:25:09.084Z,22.00
2019-04-05T19:27:38.705Z,22.00
2019-04-05T19:50:17.824Z,22.00
2019-04-05T19:52:47.114Z,22.00
2019-04-05T19:55:16.502Z,22.10
2019-04-05T19:57:45.831Z,22.10
2019-04-05T20:00:15.734Z,22.10
2019-04-05T20:02:45.122Z,22.00
2019-04-05T20:05:14.428Z,22.00
2019-04-05T20:07:44.031Z,21.80
2019-04-05T20:10:13.523Z,21.70
2019-04-05T20:12:42.798Z,21.70
2019-04-05T20:15:12.266Z,21.70
2019-04-05T20:17:41.539Z,21.70
2019-04-05T20:20:14.164Z,21.80
2019-04-05T20:22:43.442Z,21.80
2019-04-05T20:25:12.937Z,21.90
2019-04-05T20:27:42.210Z,21.80
2019-04-05T20:30:11.590Z,21.70
2019-04-05T20:32:40.989Z,21.70
2019-04-05T20:35:10.320Z,21.80
2019-04-05T20:37:40.211Z,21.90
2019-04-05T20:40:09.794Z,21.90
2019-04-05T20:42:39.089Z,21.70
2019-04-05T20:45:08.562Z,21.80
2019-04-05T20:47:37.851Z,21.80
2019-04-05T20:50:07.622Z,21.80
2019-04-05T20:52:36.960Z,22.00
2019-04-05T20:55:07.534Z,22.10
2019-04-05T20:57:36.898Z,22.20
2019-04-05T21:00:12.082Z,22.30
2019-04-05T21:02:42.048Z,22.40
2019-04-05T21:05:11.417Z,22.60
2019-04-05T21:07:40.793Z,22.70
2019-04-05T21:10:10.518Z,22.80
2019-04-05T21:12:41.787Z,22.70
2019-04-05T21:15:10.704Z,22.90
2019-04-05T21:17:40.036Z,23.00
2019-04-05T21:20:09.405Z,23.00
2019-04-05T21:22:38.685Z,23.00
2019-04-05T21:25:08.134Z,23.00
2019-04-05T21:27:37.571Z,23.00
2019-04-05T21:30:08.145Z,23.00
2019-04-05T21:32:37.460Z,23.00
2019-04-05T21:35:07.546Z,23.00
2019-04-05T21:37:36.866Z,23.10
2019-04-05T21:40:06.869Z,23.20
2019-04-05T21:42:36.290Z,23.30
2019-04-05T21:45:06.564Z,23.30
2019-04-05T21:47:36.100Z,23.40
2019-04-05T21:50:06.959Z,23.40
2019-04-05T21:52:36.243Z,23.40
2019-04-05T21:55:07.030Z,23.40
2019-04-05T21:57:36.310Z,23.50
2019-04-05T22:00:15.784Z,23.50
2019-04-05T22:02:45.067Z,23.50
2019-04-05T22:05:14.455Z,23.60
2019-04-05T22:07:43.763Z,23.60
2019-04-05T22:10:13.029Z,23.60
2019-04-05T22:12:42.482Z,23.70
2019-04-05T22:15:11.775Z,23.70
2019-04-05T22:17:41.040Z,23.70
2019-04-05T22:20:10.430Z,23.70
2019-04-05T22:22:39.843Z,23.70
2019-04-05T22:25:09.377Z,23.70
2019-04-05T22:27:38.770Z,23.70
2019-04-05T22:30:08.053Z,23.80
2019-04-05T22:32:37.321Z,23.80
2019-04-05T22:35:08.022Z,23.70
2019-04-05T22:37:39.529Z,23.60
2019-04-05T22:40:08.643Z,23.60
2019-04-05T22:42:37.940Z,23.60
2019-04-05T22:45:07.655Z,23.50
2019-04-05T22:47:37.025Z,23.50
2019-04-05T22:50:09.602Z,23.60
2019-04-05T22:52:39.291Z,23.50
2019-04-05T22:55:11.640Z,23.40
2019-04-05T22:57:39.288Z,23.30
2019-04-05T23:00:08.963Z,23.30
2019-04-05T23:02:38.245Z,23.40
2019-04-05T23:05:09.317Z,23.50
2019-04-05T23:07:38.720Z,23.60
2019-04-05T23:10:08.900Z,23.70
2019-04-05T23:12:38.881Z,23.60
2019-04-05T23:15:08.623Z,23.40
2019-04-05T23:17:38.689Z,23.40
2019-04-05T23:20:08.747Z,23.40
2019-04-05T23:22:38.824Z,23.40
2019-04-05T23:25:08.450Z,23.40
2019-04-05T23:27:37.729Z,23.50
2019-04-05T23:30:07.818Z,23.60
2019-04-05T23:32:37.122Z,23.70
2019-04-05T23:35:07.176Z,23.60
2019-04-05T23:37:36.721Z,23.70
2019-04-05T23:40:07.016Z,23.70
2019-04-05T23:42:36.290Z,23.80
2019-04-05T23:45:06.588Z,23.70
2019-04-05T23:47:36.226Z,23.70
2019-04-05T23:50:06.097Z,23.60
2019-04-05T23:52:35.456Z,23.60
2019-04-05T23:55:05.330Z,23.60
2019-04-05T23:57:34.615Z,23.60
